Portada
METAR-TAF:

METAR-TAF

Aeropuertos :

Aeropuerto de Tébessa

Tébessa, Argelia

latitud: 35-29N, longitud: 008-08E, altitud: 813 m

Observación

El informe se hizo hace 3 horas y 16 minutos, a las 12:00 UTC
Viento 11 kt del sureste
Temperatura 36°C
Presión 1019 hPa
Visibilidad: 8000 m

METAR: DABS 201200Z 13011KT 8000 NSC 36/// Q1019

Hora: 16:16 (15:16 UTC)

Pronóstico

El informe se hizo hace 4 horas y 16 minutos, a las 11:00 UTC
Pronóstico válido del 20 a las 12 UTC al 21 a las 12 UTC
Viento 12 kt del sureste
Visibilidad: 8000 m
Probabilidad 40% :
Temporalmente
del 20 a las 12 UTC al 20 a las 21 UTC
Viento 15 kt del sureste con ráfagas de 25 kt
Visibilidad: 4000 m
Ventisca baja de arena,

TAF: DABS 201100Z 2012/2112 13012KT 8000 NSC PROB40 TEMPO 2012/2021 13015G25KT 4000 DRSA

Observaciones y pronósticos meteorológicos de más de 4000 aeropuertos (mensajes METAR y TAF).

Los puntos amarillos y rojos representan las estaciones disponibles.

Ponga el ratón en el punto deseado para ver el nombre de la estación.

Haga clic para ver las observaciones y los pronósticos meteorológicos.

Para cambiar el mapa : haga clic en los botones verdes con una cruz de color negro para hacer un zoom, en el botón verde con un guión para alejar o en las flechas verdes para mapas adyacentes.


METAR-TAF: